sensor_id;sensor_type;location;lat;lon;timestamp;P1;durP1;ratioP1;P2;durP2;ratioP2
485;SDS011;229;48.734;9.340;2023-07-13T00:01:06;5.30;;;3.70;;
485;SDS011;229;48.734;9.340;2023-07-13T00:03:33;5.13;;;3.57;;
485;SDS011;229;48.734;9.340;2023-07-13T00:06:00;5.00;;;3.67;;
485;SDS011;229;48.734;9.340;2023-07-13T00:08:29;5.70;;;3.90;;
485;SDS011;229;48.734;9.340;2023-07-13T00:10:57;4.57;;;3.30;;
485;SDS011;229;48.734;9.340;2023-07-13T00:13:24;4.20;;;3.47;;
485;SDS011;229;48.734;9.340;2023-07-13T00:15:52;10.17;;;3.90;;
485;SDS011;229;48.734;9.340;2023-07-13T00:18:21;8.93;;;3.37;;
485;SDS011;229;48.734;9.340;2023-07-13T00:20:48;4.50;;;3.20;;
485;SDS011;229;48.734;9.340;2023-07-13T00:23:16;5.80;;;3.63;;
485;SDS011;229;48.734;9.340;2023-07-13T00:25:44;6.40;;;3.87;;
485;SDS011;229;48.734;9.340;2023-07-13T00:28:11;3.77;;;3.57;;
485;SDS011;229;48.734;9.340;2023-07-13T00:30:38;6.00;;;3.47;;
485;SDS011;229;48.734;9.340;2023-07-13T00:33:05;5.43;;;3.70;;
485;SDS011;229;48.734;9.340;2023-07-13T00:35:34;4.90;;;3.40;;
485;SDS011;229;48.734;9.340;2023-07-13T00:38:01;10.50;;;3.50;;
485;SDS011;229;48.734;9.340;2023-07-13T00:40:28;5.30;;;3.23;;
485;SDS011;229;48.734;9.340;2023-07-13T00:42:57;5.60;;;3.60;;
485;SDS011;229;48.734;9.340;2023-07-13T00:48:10;7.23;;;3.80;;
485;SDS011;229;48.734;9.340;2023-07-13T00:50:39;5.43;;;3.80;;
485;SDS011;229;48.734;9.340;2023-07-13T00:53:07;4.67;;;3.83;;
485;SDS011;229;48.734;9.340;2023-07-13T00:55:34;4.53;;;3.87;;
485;SDS011;229;48.734;9.340;2023-07-13T00:58:01;5.00;;;3.50;;
485;SDS011;229;48.734;9.340;2023-07-13T01:00:29;4.23;;;3.10;;
485;SDS011;229;48.734;9.340;2023-07-13T01:02:57;4.83;;;3.50;;
485;SDS011;229;48.734;9.340;2023-07-13T01:05:24;3.47;;;3.27;;
485;SDS011;229;48.734;9.340;2023-07-13T01:07:53;5.57;;;3.43;;
485;SDS011;229;48.734;9.340;2023-07-13T01:10:21;6.57;;;3.37;;
485;SDS011;229;48.734;9.340;2023-07-13T01:12:48;6.10;;;3.53;;
485;SDS011;229;48.734;9.340;2023-07-13T01:15:34;3.40;;;3.13;;
485;SDS011;229;48.734;9.340;2023-07-13T01:18:02;4.83;;;3.30;;
485;SDS011;229;48.734;9.340;2023-07-13T01:20:30;9.03;;;3.63;;
485;SDS011;229;48.734;9.340;2023-07-13T01:23:02;4.60;;;3.30;;
485;SDS011;229;48.734;9.340;2023-07-13T01:25:29;4.73;;;3.00;;
485;SDS011;229;48.734;9.340;2023-07-13T01:27:56;4.60;;;3.37;;
485;SDS011;229;48.734;9.340;2023-07-13T01:30:24;3.67;;;3.27;;
485;SDS011;229;48.734;9.340;2023-07-13T01:32:51;4.90;;;3.00;;
485;SDS011;229;48.734;9.340;2023-07-13T01:35:18;4.60;;;2.77;;
485;SDS011;229;48.734;9.340;2023-07-13T01:37:45;3.67;;;3.03;;
485;SDS011;229;48.734;9.340;2023-07-13T01:40:14;3.07;;;2.90;;
485;SDS011;229;48.734;9.340;2023-07-13T01:42:41;9.43;;;3.10;;
485;SDS011;229;48.734;9.340;2023-07-13T01:45:08;4.73;;;3.10;;
485;SDS011;229;48.734;9.340;2023-07-13T01:47:36;5.77;;;3.23;;
485;SDS011;229;48.734;9.340;2023-07-13T01:50:03;5.73;;;3.40;;
485;SDS011;229;48.734;9.340;2023-07-13T01:52:30;7.73;;;3.43;;
485;SDS011;229;48.734;9.340;2023-07-13T01:54:57;6.80;;;3.10;;
485;SDS011;229;48.734;9.340;2023-07-13T01:57:26;3.43;;;3.03;;
485;SDS011;229;48.734;9.340;2023-07-13T01:59:53;4.13;;;2.80;;
485;SDS011;229;48.734;9.340;2023-07-13T02:02:20;9.47;;;3.50;;
485;SDS011;229;48.734;9.340;2023-07-13T02:04:47;3.50;;;3.30;;
485;SDS011;229;48.734;9.340;2023-07-13T02:07:14;5.73;;;3.23;;
485;SDS011;229;48.734;9.340;2023-07-13T02:09:42;4.10;;;3.50;;
485;SDS011;229;48.734;9.340;2023-07-13T02:12:09;10.07;;;3.83;;
485;SDS011;229;48.734;9.340;2023-07-13T02:14:37;6.37;;;3.23;;
485;SDS011;229;48.734;9.340;2023-07-13T02:17:05;10.10;;;3.37;;
485;SDS011;229;48.734;9.340;2023-07-13T02:19:32;4.20;;;2.73;;
485;SDS011;229;48.734;9.340;2023-07-13T02:21:59;7.60;;;3.10;;
485;SDS011;229;48.734;9.340;2023-07-13T02:24:26;5.43;;;3.00;;
485;SDS011;229;48.734;9.340;2023-07-13T02:26:53;5.40;;;3.10;;
485;SDS011;229;48.734;9.340;2023-07-13T02:29:20;4.40;;;3.33;;
485;SDS011;229;48.734;9.340;2023-07-13T02:31:49;9.40;;;3.30;;
485;SDS011;229;48.734;9.340;2023-07-13T02:34:16;3.60;;;3.07;;
485;SDS011;229;48.734;9.340;2023-07-13T02:36:43;8.90;;;3.80;;
485;SDS011;229;48.734;9.340;2023-07-13T02:39:11;3.67;;;3.10;;
485;SDS011;229;48.734;9.340;2023-07-13T02:41:38;4.43;;;2.90;;
485;SDS011;229;48.734;9.340;2023-07-13T02:44:05;4.17;;;3.20;;
485;SDS011;229;48.734;9.340;2023-07-13T02:46:34;3.90;;;3.10;;
485;SDS011;229;48.734;9.340;2023-07-13T02:49:03;3.10;;;2.90;;
485;SDS011;229;48.734;9.340;2023-07-13T02:51:30;3.10;;;2.90;;
485;SDS011;229;48.734;9.340;2023-07-13T02:53:59;3.53;;;3.10;;
485;SDS011;229;48.734;9.340;2023-07-13T02:56:27;3.40;;;3.10;;
485;SDS011;229;48.734;9.340;2023-07-13T02:58:54;4.45;;;3.10;;
485;SDS011;229;48.734;9.340;2023-07-13T03:01:21;8.97;;;3.00;;
485;SDS011;229;48.734;9.340;2023-07-13T03:03:49;8.17;;;3.10;;
485;SDS011;229;48.734;9.340;2023-07-13T03:06:17;4.30;;;3.30;;
485;SDS011;229;48.734;9.340;2023-07-13T03:08:45;3.15;;;2.95;;
485;SDS011;229;48.734;9.340;2023-07-13T03:11:14;6.18;;;3.00;;
485;SDS011;229;48.734;9.340;2023-07-13T03:13:41;5.15;;;3.08;;
485;SDS011;229;48.734;9.340;2023-07-13T03:16:09;5.65;;;3.63;;
485;SDS011;229;48.734;9.340;2023-07-13T03:18:36;5.57;;;3.83;;
485;SDS011;229;48.734;9.340;2023-07-13T03:21:04;5.22;;;4.30;;
485;SDS011;229;48.734;9.340;2023-07-13T03:23:33;6.82;;;4.70;;
485;SDS011;229;48.734;9.340;2023-07-13T03:26:01;5.10;;;4.80;;
485;SDS011;229;48.734;9.340;2023-07-13T03:28:28;6.38;;;3.92;;
485;SDS011;229;48.734;9.340;2023-07-13T03:30:59;5.80;;;4.30;;
485;SDS011;229;48.734;9.340;2023-07-13T03:33:26;6.40;;;4.45;;
485;SDS011;229;48.734;9.340;2023-07-13T03:35:53;4.60;;;3.60;;
485;SDS011;229;48.734;9.340;2023-07-13T03:38:20;6.60;;;4.40;;
485;SDS011;229;48.734;9.340;2023-07-13T03:40:49;3.80;;;3.60;;
485;SDS011;229;48.734;9.340;2023-07-13T03:43:16;5.72;;;4.47;;
485;SDS011;229;48.734;9.340;2023-07-13T03:45:45;6.82;;;3.78;;
485;SDS011;229;48.734;9.340;2023-07-13T03:48:13;5.82;;;3.78;;
485;SDS011;229;48.734;9.340;2023-07-13T03:50:40;5.88;;;4.03;;
485;SDS011;229;48.734;9.340;2023-07-13T03:53:07;7.57;;;4.13;;
485;SDS011;229;48.734;9.340;2023-07-13T03:55:34;5.32;;;4.00;;
485;SDS011;229;48.734;9.340;2023-07-13T04:00:48;7.93;;;3.90;;
485;SDS011;229;48.734;9.340;2023-07-13T04:03:15;3.90;;;3.70;;
485;SDS011;229;48.734;9.340;2023-07-13T04:05:42;5.25;;;4.95;;
485;SDS011;229;48.734;9.340;2023-07-13T04:08:10;9.23;;;4.82;;
485;SDS011;229;48.734;9.340;2023-07-13T04:10:37;4.47;;;4.20;;
485;SDS011;229;48.734;9.340;2023-07-13T04:13:04;4.60;;;4.35;;
485;SDS011;229;48.734;9.340;2023-07-13T04:15:31;4.30;;;4.05;;
485;SDS011;229;48.734;9.340;2023-07-13T04:18:00;6.00;;;3.60;;
485;SDS011;229;48.734;9.340;2023-07-13T04:20:28;5.63;;;3.93;;
485;SDS011;229;48.734;9.340;2023-07-13T04:22:55;4.03;;;3.83;;
485;SDS011;229;48.734;9.340;2023-07-13T04:25:23;6.60;;;4.77;;
485;SDS011;229;48.734;9.340;2023-07-13T04:27:50;6.82;;;4.45;;
485;SDS011;229;48.734;9.340;2023-07-13T04:30:18;5.65;;;3.78;;
485;SDS011;229;48.734;9.340;2023-07-13T04:32:45;6.80;;;4.00;;
485;SDS011;229;48.734;9.340;2023-07-13T04:35:14;5.30;;;4.00;;
485;SDS011;229;48.734;9.340;2023-07-13T04:37:41;5.32;;;4.10;;
485;SDS011;229;48.734;9.340;2023-07-13T04:40:08;5.53;;;4.10;;
485;SDS011;229;48.734;9.340;2023-07-13T04:42:37;4.30;;;4.00;;
485;SDS011;229;48.734;9.340;2023-07-13T04:45:05;5.25;;;3.97;;
485;SDS011;229;48.734;9.340;2023-07-13T04:47:32;7.43;;;4.00;;
485;SDS011;229;48.734;9.340;2023-07-13T04:49:59;4.78;;;4.40;;
485;SDS011;229;48.734;9.340;2023-07-13T04:52:28;8.47;;;4.47;;
485;SDS011;229;48.734;9.340;2023-07-13T04:54:55;4.85;;;3.80;;
485;SDS011;229;48.734;9.340;2023-07-13T04:57:22;10.27;;;4.90;;
485;SDS011;229;48.734;9.340;2023-07-13T04:59:50;8.13;;;4.28;;
485;SDS011;229;48.734;9.340;2023-07-13T05:02:17;4.87;;;3.67;;
485;SDS011;229;48.734;9.340;2023-07-13T05:04:46;5.85;;;4.57;;
485;SDS011;229;48.734;9.340;2023-07-13T05:07:13;10.20;;;4.60;;
485;SDS011;229;48.734;9.340;2023-07-13T05:09:41;5.50;;;4.75;;
485;SDS011;229;48.734;9.340;2023-07-13T05:12:09;6.37;;;4.53;;
485;SDS011;229;48.734;9.340;2023-07-13T05:14:36;6.78;;;4.70;;
485;SDS011;229;48.734;9.340;2023-07-13T05:17:03;9.30;;;3.63;;
485;SDS011;229;48.734;9.340;2023-07-13T05:19:31;6.83;;;3.70;;
485;SDS011;229;48.734;9.340;2023-07-13T05:21:58;8.50;;;4.20;;
485;SDS011;229;48.734;9.340;2023-07-13T05:24:25;7.85;;;3.53;;
485;SDS011;229;48.734;9.340;2023-07-13T05:26:54;4.73;;;4.30;;
485;SDS011;229;48.734;9.340;2023-07-13T05:29:21;7.60;;;4.45;;
485;SDS011;229;48.734;9.340;2023-07-13T05:31:49;5.27;;;4.50;;
485;SDS011;229;48.734;9.340;2023-07-13T05:34:16;5.30;;;4.50;;
485;SDS011;229;48.734;9.340;2023-07-13T05:36:43;5.40;;;4.17;;
485;SDS011;229;48.734;9.340;2023-07-13T05:39:10;6.97;;;4.20;;
485;SDS011;229;48.734;9.340;2023-07-13T05:41:38;5.23;;;3.90;;
485;SDS011;229;48.734;9.340;2023-07-13T05:44:06;5.80;;;4.03;;
485;SDS011;229;48.734;9.340;2023-07-13T05:46:33;5.53;;;4.17;;
485;SDS011;229;48.734;9.340;2023-07-13T05:49:01;5.10;;;4.63;;
485;SDS011;229;48.734;9.340;2023-07-13T05:51:28;6.90;;;4.50;;
485;SDS011;229;48.734;9.340;2023-07-13T05:53:55;6.00;;;4.57;;
485;SDS011;229;48.734;9.340;2023-07-13T05:56:22;5.57;;;4.30;;
485;SDS011;229;48.734;9.340;2023-07-13T05:58:50;4.90;;;4.27;;
485;SDS011;229;48.734;9.340;2023-07-13T06:01:19;5.87;;;4.70;;
485;SDS011;229;48.734;9.340;2023-07-13T06:03:47;5.00;;;4.40;;
485;SDS011;229;48.734;9.340;2023-07-13T06:06:15;6.53;;;4.40;;
485;SDS011;229;48.734;9.340;2023-07-13T06:08:42;5.63;;;4.83;;
485;SDS011;229;48.734;9.340;2023-07-13T06:11:10;8.97;;;5.00;;
485;SDS011;229;48.734;9.340;2023-07-13T06:13:39;5.60;;;5.30;;
485;SDS011;229;48.734;9.340;2023-07-13T06:16:06;7.27;;;4.50;;
485;SDS011;229;48.734;9.340;2023-07-13T06:18:35;6.20;;;5.53;;
485;SDS011;229;48.734;9.340;2023-07-13T06:21:05;11.73;;;5.57;;
485;SDS011;229;48.734;9.340;2023-07-13T06:23:32;6.87;;;5.27;;
485;SDS011;229;48.734;9.340;2023-07-13T06:26:00;5.27;;;4.97;;
485;SDS011;229;48.734;9.340;2023-07-13T06:28:28;5.50;;;5.23;;
485;SDS011;229;48.734;9.340;2023-07-13T06:30:55;7.83;;;5.90;;
485;SDS011;229;48.734;9.340;2023-07-13T06:33:22;8.70;;;5.60;;
485;SDS011;229;48.734;9.340;2023-07-13T06:35:50;9.40;;;5.47;;
485;SDS011;229;48.734;9.340;2023-07-13T06:38:18;5.20;;;4.90;;
485;SDS011;229;48.734;9.340;2023-07-13T06:40:45;6.70;;;5.13;;
485;SDS011;229;48.734;9.340;2023-07-13T06:43:12;5.83;;;5.20;;
485;SDS011;229;48.734;9.340;2023-07-13T06:45:40;5.60;;;5.30;;
485;SDS011;229;48.734;9.340;2023-07-13T06:48:08;10.20;;;5.80;;
485;SDS011;229;48.734;9.340;2023-07-13T06:50:35;9.60;;;5.40;;
485;SDS011;229;48.734;9.340;2023-07-13T06:53:03;12.83;;;5.70;;
485;SDS011;229;48.734;9.340;2023-07-13T06:55:30;6.33;;;5.93;;
485;SDS011;229;48.734;9.340;2023-07-13T06:57:58;7.13;;;5.47;;
485;SDS011;229;48.734;9.340;2023-07-13T07:00:25;6.50;;;5.37;;
485;SDS011;229;48.734;9.340;2023-07-13T07:02:52;9.23;;;5.43;;
485;SDS011;229;48.734;9.340;2023-07-13T07:05:19;6.00;;;5.30;;
485;SDS011;229;48.734;9.340;2023-07-13T07:07:47;7.00;;;4.93;;
485;SDS011;229;48.734;9.340;2023-07-13T07:10:15;8.17;;;4.90;;
485;SDS011;229;48.734;9.340;2023-07-13T07:12:43;9.90;;;5.80;;
485;SDS011;229;48.734;9.340;2023-07-13T07:15:10;6.03;;;5.77;;
485;SDS011;229;48.734;9.340;2023-07-13T07:17:37;9.00;;;6.10;;
485;SDS011;229;48.734;9.340;2023-07-13T07:20:05;6.57;;;6.17;;
485;SDS011;229;48.734;9.340;2023-07-13T07:22:32;6.07;;;5.80;;
485;SDS011;229;48.734;9.340;2023-07-13T07:25:00;6.60;;;5.57;;
485;SDS011;229;48.734;9.340;2023-07-13T07:27:28;5.97;;;5.40;;
485;SDS011;229;48.734;9.340;2023-07-13T07:29:55;5.60;;;5.30;;
485;SDS011;229;48.734;9.340;2023-07-13T07:32:23;7.33;;;5.83;;
485;SDS011;229;48.734;9.340;2023-07-13T07:34:50;5.83;;;5.53;;
485;SDS011;229;48.734;9.340;2023-07-13T07:37:17;5.00;;;4.70;;
485;SDS011;229;48.734;9.340;2023-07-13T07:39:45;5.60;;;5.30;;
485;SDS011;229;48.734;9.340;2023-07-13T07:42:12;6.50;;;5.23;;
485;SDS011;229;48.734;9.340;2023-07-13T07:44:41;6.23;;;5.10;;
485;SDS011;229;48.734;9.340;2023-07-13T07:47:08;7.57;;;4.80;;
485;SDS011;229;48.734;9.340;2023-07-13T07:49:35;5.00;;;4.70;;
485;SDS011;229;48.734;9.340;2023-07-13T07:52:03;5.47;;;5.10;;
485;SDS011;229;48.734;9.340;2023-07-13T07:54:31;5.13;;;4.83;;
485;SDS011;229;48.734;9.340;2023-07-13T07:56:58;9.60;;;5.27;;
485;SDS011;229;48.734;9.340;2023-07-13T07:59:25;5.10;;;4.80;;
485;SDS011;229;48.734;9.340;2023-07-13T08:01:54;5.27;;;4.97;;
485;SDS011;229;48.734;9.340;2023-07-13T08:04:21;6.00;;;5.70;;
485;SDS011;229;48.734;9.340;2023-07-13T08:06:48;6.07;;;5.77;;
485;SDS011;229;48.734;9.340;2023-07-13T08:09:15;6.10;;;5.80;;
485;SDS011;229;48.734;9.340;2023-07-13T08:11:43;5.53;;;5.10;;
485;SDS011;229;48.734;9.340;2023-07-13T08:14:10;5.30;;;4.90;;
485;SDS011;229;48.734;9.340;2023-07-13T08:16:37;6.90;;;4.90;;
485;SDS011;229;48.734;9.340;2023-07-13T08:19:06;5.20;;;4.83;;
485;SDS011;229;48.734;9.340;2023-07-13T08:21:33;6.80;;;4.43;;
485;SDS011;229;48.734;9.340;2023-07-13T08:24:00;5.00;;;4.37;;
485;SDS011;229;48.734;9.340;2023-07-13T08:26:27;4.53;;;4.23;;
485;SDS011;229;48.734;9.340;2023-07-13T08:28:55;6.63;;;4.60;;
485;SDS011;229;48.734;9.340;2023-07-13T08:31:22;5.33;;;5.03;;
485;SDS011;229;48.734;9.340;2023-07-13T08:33:49;7.30;;;4.57;;
485;SDS011;229;48.734;9.340;2023-07-13T08:36:18;8.73;;;5.00;;
485;SDS011;229;48.734;9.340;2023-07-13T08:38:45;7.27;;;4.60;;
485;SDS011;229;48.734;9.340;2023-07-13T08:41:13;5.13;;;4.87;;
485;SDS011;229;48.734;9.340;2023-07-13T08:43:40;6.13;;;4.40;;
485;SDS011;229;48.734;9.340;2023-07-13T08:46:08;4.97;;;4.67;;
485;SDS011;229;48.734;9.340;2023-07-13T08:48:38;5.23;;;4.40;;
485;SDS011;229;48.734;9.340;2023-07-13T08:51:09;6.03;;;4.93;;
485;SDS011;229;48.734;9.340;2023-07-13T08:53:40;4.47;;;3.67;;
485;SDS011;229;48.734;9.340;2023-07-13T08:56:10;4.70;;;4.40;;
485;SDS011;229;48.734;9.340;2023-07-13T08:58:38;7.23;;;4.43;;
485;SDS011;229;48.734;9.340;2023-07-13T09:01:15;4.73;;;3.93;;
485;SDS011;229;48.734;9.340;2023-07-13T09:03:46;5.20;;;4.27;;
485;SDS011;229;48.734;9.340;2023-07-13T09:06:16;6.80;;;4.43;;
485;SDS011;229;48.734;9.340;2023-07-13T09:08:47;6.03;;;4.63;;
485;SDS011;229;48.734;9.340;2023-07-13T09:11:20;8.30;;;4.60;;
485;SDS011;229;48.734;9.340;2023-07-13T09:13:52;5.20;;;4.60;;
485;SDS011;229;48.734;9.340;2023-07-13T09:16:22;5.20;;;4.90;;
485;SDS011;229;48.734;9.340;2023-07-13T09:18:50;6.70;;;4.90;;
485;SDS011;229;48.734;9.340;2023-07-13T09:21:18;15.03;;;5.30;;
485;SDS011;229;48.734;9.340;2023-07-13T09:23:49;6.10;;;5.80;;
485;SDS011;229;48.734;9.340;2023-07-13T09:26:18;6.90;;;5.30;;
485;SDS011;229;48.734;9.340;2023-07-13T09:28:46;8.87;;;6.73;;
485;SDS011;229;48.734;9.340;2023-07-13T09:31:14;6.33;;;5.97;;
485;SDS011;229;48.734;9.340;2023-07-13T09:33:42;5.90;;;5.60;;
485;SDS011;229;48.734;9.340;2023-07-13T09:36:17;5.83;;;5.53;;
485;SDS011;229;48.734;9.340;2023-07-13T09:38:45;4.87;;;4.57;;
485;SDS011;229;48.734;9.340;2023-07-13T09:41:18;6.90;;;4.60;;
485;SDS011;229;48.734;9.340;2023-07-13T09:44:06;5.30;;;4.90;;
485;SDS011;229;48.734;9.340;2023-07-13T09:46:36;5.60;;;5.23;;
485;SDS011;229;48.734;9.340;2023-07-13T09:49:04;5.20;;;4.90;;
485;SDS011;229;48.734;9.340;2023-07-13T09:51:31;7.40;;;4.30;;
485;SDS011;229;48.734;9.340;2023-07-13T09:53:58;4.87;;;4.40;;
485;SDS011;229;48.734;9.340;2023-07-13T09:56:29;7.50;;;4.77;;
485;SDS011;229;48.734;9.340;2023-07-13T09:58:57;7.97;;;4.60;;
485;SDS011;229;48.734;9.340;2023-07-13T10:01:31;7.00;;;4.10;;
485;SDS011;229;48.734;9.340;2023-07-13T10:03:59;10.93;;;4.50;;
485;SDS011;229;48.734;9.340;2023-07-13T10:06:26;5.70;;;4.60;;
485;SDS011;229;48.734;9.340;2023-07-13T10:08:55;7.37;;;4.37;;
485;SDS011;229;48.734;9.340;2023-07-13T10:11:23;5.20;;;4.53;;
485;SDS011;229;48.734;9.340;2023-07-13T10:13:54;5.53;;;5.23;;
485;SDS011;229;48.734;9.340;2023-07-13T10:16:22;5.30;;;4.33;;
485;SDS011;229;48.734;9.340;2023-07-13T10:18:50;4.67;;;4.37;;
485;SDS011;229;48.734;9.340;2023-07-13T10:21:20;5.33;;;4.00;;
485;SDS011;229;48.734;9.340;2023-07-13T10:23:50;6.23;;;4.13;;
485;SDS011;229;48.734;9.340;2023-07-13T10:26:19;4.67;;;4.37;;
485;SDS011;229;48.734;9.340;2023-07-13T10:28:49;6.30;;;4.13;;
485;SDS011;229;48.734;9.340;2023-07-13T10:31:19;5.70;;;4.10;;
485;SDS011;229;48.734;9.340;2023-07-13T10:33:47;6.23;;;4.67;;
485;SDS011;229;48.734;9.340;2023-07-13T10:36:17;3.83;;;3.63;;
485;SDS011;229;48.734;9.340;2023-07-13T10:38:47;4.37;;;4.07;;
485;SDS011;229;48.734;9.340;2023-07-13T10:41:17;8.17;;;4.93;;
485;SDS011;229;48.734;9.340;2023-07-13T10:43:46;7.70;;;4.60;;
485;SDS011;229;48.734;9.340;2023-07-13T10:46:16;7.10;;;4.80;;
485;SDS011;229;48.734;9.340;2023-07-13T10:48:46;5.50;;;4.57;;
485;SDS011;229;48.734;9.340;2023-07-13T10:51:18;6.27;;;4.40;;
485;SDS011;229;48.734;9.340;2023-07-13T10:53:47;4.03;;;3.83;;
485;SDS011;229;48.734;9.340;2023-07-13T10:56:20;4.90;;;4.40;;
485;SDS011;229;48.734;9.340;2023-07-13T10:58:50;4.77;;;4.33;;
485;SDS011;229;48.734;9.340;2023-07-13T11:01:28;5.70;;;4.80;;
485;SDS011;229;48.734;9.340;2023-07-13T11:04:10;11.43;;;4.60;;
485;SDS011;229;48.734;9.340;2023-07-13T11:06:40;7.30;;;4.53;;
485;SDS011;229;48.734;9.340;2023-07-13T11:09:18;8.20;;;5.07;;
485;SDS011;229;48.734;9.340;2023-07-13T11:11:45;5.00;;;4.70;;
485;SDS011;229;48.734;9.340;2023-07-13T11:14:25;6.07;;;4.80;;
485;SDS011;229;48.734;9.340;2023-07-13T11:16:53;5.00;;;4.73;;
485;SDS011;229;48.734;9.340;2023-07-13T11:19:26;5.07;;;4.80;;
485;SDS011;229;48.734;9.340;2023-07-13T11:22:03;7.03;;;4.60;;
485;SDS011;229;48.734;9.340;2023-07-13T11:24:52;5.10;;;4.80;;
485;SDS011;229;48.734;9.340;2023-07-13T11:27:24;6.50;;;4.73;;
485;SDS011;229;48.734;9.340;2023-07-13T11:30:06;4.77;;;4.47;;
485;SDS011;229;48.734;9.340;2023-07-13T11:32:34;4.47;;;4.23;;
485;SDS011;229;48.734;9.340;2023-07-13T11:35:03;5.70;;;5.40;;
485;SDS011;229;48.734;9.340;2023-07-13T11:37:30;4.73;;;4.47;;
485;SDS011;229;48.734;9.340;2023-07-13T11:39:57;6.80;;;4.77;;
485;SDS011;229;48.734;9.340;2023-07-13T11:42:25;8.10;;;5.03;;
485;SDS011;229;48.734;9.340;2023-07-13T11:44:52;5.80;;;4.20;;
485;SDS011;229;48.734;9.340;2023-07-13T11:47:21;6.53;;;4.73;;
485;SDS011;229;48.734;9.340;2023-07-13T11:49:52;8.10;;;4.80;;
485;SDS011;229;48.734;9.340;2023-07-13T11:52:24;5.60;;;5.30;;
485;SDS011;229;48.734;9.340;2023-07-13T11:54:55;6.67;;;4.80;;
485;SDS011;229;48.734;9.340;2023-07-13T11:57:23;5.00;;;4.70;;
485;SDS011;229;48.734;9.340;2023-07-13T11:59:51;5.90;;;4.77;;
485;SDS011;229;48.734;9.340;2023-07-13T12:02:22;5.33;;;4.80;;
485;SDS011;229;48.734;9.340;2023-07-13T12:04:52;6.67;;;5.07;;
485;SDS011;229;48.734;9.340;2023-07-13T12:07:19;6.27;;;5.17;;
485;SDS011;229;48.734;9.340;2023-07-13T12:09:48;6.10;;;5.23;;
485;SDS011;229;48.734;9.340;2023-07-13T12:12:17;4.50;;;4.20;;
485;SDS011;229;48.734;9.340;2023-07-13T12:14:44;6.20;;;4.70;;
485;SDS011;229;48.734;9.340;2023-07-13T12:17:16;5.80;;;5.50;;
485;SDS011;229;48.734;9.340;2023-07-13T12:19:45;8.40;;;5.00;;
485;SDS011;229;48.734;9.340;2023-07-13T12:22:13;5.33;;;4.90;;
485;SDS011;229;48.734;9.340;2023-07-13T12:24:41;7.33;;;5.27;;
485;SDS011;229;48.734;9.340;2023-07-13T12:27:16;6.33;;;5.17;;
485;SDS011;229;48.734;9.340;2023-07-13T12:29:49;4.70;;;4.40;;
485;SDS011;229;48.734;9.340;2023-07-13T12:32:18;5.70;;;5.40;;
485;SDS011;229;48.734;9.340;2023-07-13T12:34:51;9.43;;;5.20;;
485;SDS011;229;48.734;9.340;2023-07-13T12:37:18;5.63;;;5.33;;
485;SDS011;229;48.734;9.340;2023-07-13T12:39:46;6.00;;;5.70;;
485;SDS011;229;48.734;9.340;2023-07-13T12:42:18;5.60;;;4.87;;
485;SDS011;229;48.734;9.340;2023-07-13T12:44:48;7.33;;;4.17;;
485;SDS011;229;48.734;9.340;2023-07-13T12:47:16;6.47;;;4.03;;
485;SDS011;229;48.734;9.340;2023-07-13T12:49:49;4.50;;;4.20;;
485;SDS011;229;48.734;9.340;2023-07-13T12:52:17;8.43;;;4.77;;
485;SDS011;229;48.734;9.340;2023-07-13T12:54:54;6.03;;;5.60;;
485;SDS011;229;48.734;9.340;2023-07-13T12:57:24;4.70;;;4.40;;
485;SDS011;229;48.734;9.340;2023-07-13T12:59:52;4.87;;;4.57;;
485;SDS011;229;48.734;9.340;2023-07-13T13:02:29;6.63;;;4.60;;
485;SDS011;229;48.734;9.340;2023-07-13T13:04:58;4.60;;;4.33;;
485;SDS011;229;48.734;9.340;2023-07-13T13:07:25;6.40;;;4.40;;
485;SDS011;229;48.734;9.340;2023-07-13T13:09:53;6.50;;;4.50;;
485;SDS011;229;48.734;9.340;2023-07-13T13:12:21;5.37;;;4.43;;
485;SDS011;229;48.734;9.340;2023-07-13T13:14:52;4.90;;;4.60;;
485;SDS011;229;48.734;9.340;2023-07-13T13:17:21;6.87;;;4.73;;
485;SDS011;229;48.734;9.340;2023-07-13T13:19:52;6.83;;;4.47;;
485;SDS011;229;48.734;9.340;2023-07-13T13:22:19;6.60;;;4.50;;
485;SDS011;229;48.734;9.340;2023-07-13T13:24:46;4.57;;;4.27;;
485;SDS011;229;48.734;9.340;2023-07-13T13:27:16;4.80;;;4.17;;
485;SDS011;229;48.734;9.340;2023-07-13T13:29:44;5.50;;;4.17;;
485;SDS011;229;48.734;9.340;2023-07-13T13:32:13;6.43;;;4.40;;
485;SDS011;229;48.734;9.340;2023-07-13T13:34:41;7.60;;;4.20;;
485;SDS011;229;48.734;9.340;2023-07-13T13:39:53;6.40;;;4.40;;
485;SDS011;229;48.734;9.340;2023-07-13T13:42:20;5.37;;;4.43;;
485;SDS011;229;48.734;9.340;2023-07-13T13:44:49;5.30;;;4.13;;
485;SDS011;229;48.734;9.340;2023-07-13T13:47:24;4.70;;;4.40;;
485;SDS011;229;48.734;9.340;2023-07-13T13:49:54;4.67;;;4.37;;
485;SDS011;229;48.734;9.340;2023-07-13T13:52:21;9.00;;;4.80;;
485;SDS011;229;48.734;9.340;2023-07-13T13:54:48;7.57;;;4.80;;
485;SDS011;229;48.734;9.340;2023-07-13T13:57:15;5.03;;;4.50;;
485;SDS011;229;48.734;9.340;2023-07-13T13:59:42;5.10;;;4.80;;
485;SDS011;229;48.734;9.340;2023-07-13T14:02:15;7.07;;;5.13;;
485;SDS011;229;48.734;9.340;2023-07-13T14:04:49;6.20;;;4.43;;
485;SDS011;229;48.734;9.340;2023-07-13T14:07:16;10.20;;;4.97;;
485;SDS011;229;48.734;9.340;2023-07-13T14:09:43;4.97;;;4.67;;
485;SDS011;229;48.734;9.340;2023-07-13T14:12:11;4.87;;;4.57;;
485;SDS011;229;48.734;9.340;2023-07-13T14:14:38;6.43;;;5.33;;
485;SDS011;229;48.734;9.340;2023-07-13T14:17:09;5.43;;;5.03;;
485;SDS011;229;48.734;9.340;2023-07-13T14:19:38;5.23;;;4.93;;
485;SDS011;229;48.734;9.340;2023-07-13T14:22:08;6.77;;;5.80;;
485;SDS011;229;48.734;9.340;2023-07-13T14:24:35;9.93;;;4.83;;
485;SDS011;229;48.734;9.340;2023-07-13T14:27:02;9.23;;;4.77;;
485;SDS011;229;48.734;9.340;2023-07-13T14:29:29;4.37;;;4.07;;
485;SDS011;229;48.734;9.340;2023-07-13T14:31:58;8.00;;;4.40;;
485;SDS011;229;48.734;9.340;2023-07-13T14:34:26;5.80;;;4.53;;
485;SDS011;229;48.734;9.340;2023-07-13T14:36:53;8.60;;;4.50;;
485;SDS011;229;48.734;9.340;2023-07-13T14:39:22;5.43;;;4.50;;
485;SDS011;229;48.734;9.340;2023-07-13T14:41:50;5.83;;;4.43;;
485;SDS011;229;48.734;9.340;2023-07-13T14:44:19;6.33;;;4.97;;
485;SDS011;229;48.734;9.340;2023-07-13T14:46:48;9.17;;;4.60;;
485;SDS011;229;48.734;9.340;2023-07-13T14:49:19;6.60;;;4.30;;
485;SDS011;229;48.734;9.340;2023-07-13T14:51:48;4.17;;;3.93;;
485;SDS011;229;48.734;9.340;2023-07-13T14:54:15;6.70;;;4.47;;
485;SDS011;229;48.734;9.340;2023-07-13T14:56:44;6.47;;;4.20;;
485;SDS011;229;48.734;9.340;2023-07-13T14:59:11;6.47;;;4.70;;
485;SDS011;229;48.734;9.340;2023-07-13T15:01:39;5.70;;;5.40;;
485;SDS011;229;48.734;9.340;2023-07-13T15:04:07;4.60;;;4.30;;
485;SDS011;229;48.734;9.340;2023-07-13T15:09:16;4.73;;;4.43;;
485;SDS011;229;48.734;9.340;2023-07-13T15:11:45;5.13;;;4.40;;
485;SDS011;229;48.734;9.340;2023-07-13T15:14:12;6.33;;;4.00;;
485;SDS011;229;48.734;9.340;2023-07-13T15:16:39;7.60;;;4.53;;
485;SDS011;229;48.734;9.340;2023-07-13T15:19:08;6.07;;;4.60;;
485;SDS011;229;48.734;9.340;2023-07-13T15:21:35;4.70;;;4.23;;
485;SDS011;229;48.734;9.340;2023-07-13T15:24:03;7.43;;;4.00;;
485;SDS011;229;48.734;9.340;2023-07-13T15:26:33;4.30;;;4.00;;
485;SDS011;229;48.734;9.340;2023-07-13T15:29:01;6.33;;;4.53;;
485;SDS011;229;48.734;9.340;2023-07-13T15:31:29;7.30;;;5.30;;
485;SDS011;229;48.734;9.340;2023-07-13T15:33:57;7.40;;;4.87;;
485;SDS011;229;48.734;9.340;2023-07-13T15:36:24;4.87;;;4.57;;
485;SDS011;229;48.734;9.340;2023-07-13T15:38:52;4.07;;;3.87;;
485;SDS011;229;48.734;9.340;2023-07-13T15:41:20;4.23;;;3.97;;
485;SDS011;229;48.734;9.340;2023-07-13T15:43:48;7.07;;;4.13;;
485;SDS011;229;48.734;9.340;2023-07-13T15:46:18;6.80;;;4.37;;
485;SDS011;229;48.734;9.340;2023-07-13T15:48:47;7.53;;;4.40;;
485;SDS011;229;48.734;9.340;2023-07-13T15:51:17;4.07;;;3.87;;
485;SDS011;229;48.734;9.340;2023-07-13T15:53:45;4.40;;;4.10;;
485;SDS011;229;48.734;9.340;2023-07-13T15:56:17;4.90;;;4.00;;
485;SDS011;229;48.734;9.340;2023-07-13T15:58:44;6.73;;;4.40;;
485;SDS011;229;48.734;9.340;2023-07-13T16:01:12;5.30;;;4.53;;
485;SDS011;229;48.734;9.340;2023-07-13T16:03:40;5.13;;;4.50;;